Time;durP1;ratioP1;P1;durP2;ratioP2;P2;SDS_P1;SDS_P2;PMS_P1;PMS_P2;Temp;Humidity;BMP_temperature;BMP_pressure;BME280_temperature;BME280_humidity;BME280_pressure;Samples;Min_cycle;Max_cycle;Signal;HPM_P1;HPM_P2
2021/08/04 00:00:31;;;;;;;;;;;22.10;49.60;;;;;;8297574;28;20298;-47
2021/08/04 00:04:32;;;;;;;;;;;22.10;49.60;;;;;;8299050;28;19925;-46
2021/08/04 00:08:32;;;;;;;;;;;22.10;49.60;;;;;;8298020;28;20393;-46
2021/08/04 00:12:33;;;;;;;;;;;22.10;49.60;;;;;;8297343;28;20000;-47
2021/08/04 00:16:33;;;;;;;;;;;22.10;49.60;;;;;;8297745;28;19917;-46
2021/08/04 00:20:34;;;;;;;;;;;22.00;49.50;;;;;;8297869;28;21938;-46
2021/08/04 00:24:34;;;;;;;;;;;22.10;49.60;;;;;;8297827;28;19949;-46
2021/08/04 00:28:34;;;;;;;;;;;22.10;49.60;;;;;;8297498;28;19932;-46
2021/08/04 00:32:35;;;;;;;;;;;22.00;49.60;;;;;;8297420;28;20347;-45
2021/08/04 00:36:35;;;;;;;;;;;22.00;49.60;;;;;;8296982;28;19918;-47
2021/08/04 00:40:36;;;;;;;;;;;22.00;49.60;;;;;;8298132;28;20004;-46
2021/08/04 00:44:37;;;;;;;;;;;22.00;49.60;;;;;;8297444;28;19929;-46
2021/08/04 00:48:37;;;;;;;;;;;22.00;49.60;;;;;;8296740;28;19929;-47
2021/08/04 00:52:38;;;;;;;;;;;22.00;49.60;;;;;;8297237;28;19913;-46
2021/08/04 00:56:39;;;;;;;;;;;22.00;49.60;;;;;;8297914;28;19949;-47
2021/08/04 01:00:45;;;;;;;;;;;22.00;49.60;;;;;;8296756;28;19917;-46
2021/08/04 01:04:49;;;;;;;;;;;22.00;49.60;;;;;;8296974;28;19924;-45
2021/08/04 01:08:55;;;;;;;;;;;22.00;49.60;;;;;;8300377;28;19940;-47
2021/08/04 01:13:16;;;;;;;;;;;22.00;49.60;;;;;;8303092;28;19917;-45
2021/08/04 01:17:18;;;;;;;;;;;22.00;49.60;;;;;;8296280;28;19993;-45
2021/08/04 01:21:21;;;;;;;;;;;22.00;49.60;;;;;;8302589;28;19918;-46
2021/08/04 01:25:25;;;;;;;;;;;21.90;49.60;;;;;;8302629;28;19941;-46
2021/08/04 01:29:26;;;;;;;;;;;22.00;49.60;;;;;;8302488;28;19925;-46
2021/08/04 01:33:28;;;;;;;;;;;21.90;49.60;;;;;;8302155;28;19925;-46
2021/08/04 01:37:29;;;;;;;;;;;21.90;49.60;;;;;;8303234;28;19917;-46
2021/08/04 01:41:32;;;;;;;;;;;21.90;49.60;;;;;;8302249;28;19917;-46
2021/08/04 01:45:32;;;;;;;;;;;22.00;49.70;;;;;;8301587;28;20294;-46
2021/08/04 01:49:33;;;;;;;;;;;21.90;49.60;;;;;;8301914;28;19961;-45
2021/08/04 01:53:34;;;;;;;;;;;21.90;49.60;;;;;;8302648;28;20000;-45
2021/08/04 01:57:37;;;;;;;;;;;21.90;49.60;;;;;;8301237;28;19932;-46
2021/08/04 02:01:38;;;;;;;;;;;21.90;49.60;;;;;;8301532;28;20004;-46
2021/08/04 02:05:38;;;;;;;;;;;21.90;49.60;;;;;;8301454;28;20322;-46
2021/08/04 02:09:44;;;;;;;;;;;21.90;49.60;;;;;;8300896;28;20008;-46
2021/08/04 02:13:52;;;;;;;;;;;21.90;49.60;;;;;;8301942;28;20298;-46
2021/08/04 02:18:03;;;;;;;;;;;21.90;49.60;;;;;;8300561;28;19961;-46
2021/08/04 02:22:07;;;;;;;;;;;21.90;49.60;;;;;;8301048;28;19949;-45
2021/08/04 02:26:12;;;;;;;;;;;21.90;49.70;;;;;;8300787;28;19960;-47
2021/08/04 02:30:14;;;;;;;;;;;21.90;49.60;;;;;;8301030;28;19921;-45
2021/08/04 02:34:16;;;;;;;;;;;21.90;49.60;;;;;;8300711;28;20016;-46
2021/08/04 02:38:17;;;;;;;;;;;21.80;49.60;;;;;;8300585;28;19922;-45
2021/08/04 02:42:17;;;;;;;;;;;21.90;49.60;;;;;;8300074;28;20298;-45
2021/08/04 02:46:18;;;;;;;;;;;21.80;49.60;;;;;;8300331;28;19917;-46
2021/08/04 02:50:19;;;;;;;;;;;21.90;49.60;;;;;;8283255;28;20293;-46
2021/08/04 02:54:19;;;;;;;;;;;21.80;49.60;;;;;;8299603;28;19964;-46
2021/08/04 02:58:20;;;;;;;;;;;21.80;49.60;;;;;;8300059;28;20055;-46
2021/08/04 03:02:20;;;;;;;;;;;21.80;49.60;;;;;;8299776;28;20375;-45
2021/08/04 03:06:21;;;;;;;;;;;21.80;49.60;;;;;;8300130;28;19925;-46
2021/08/04 03:10:21;;;;;;;;;;;21.80;49.60;;;;;;8299448;28;20016;-46
2021/08/04 03:14:22;;;;;;;;;;;21.80;49.60;;;;;;8299766;28;19914;-46
2021/08/04 03:18:22;;;;;;;;;;;21.80;49.60;;;;;;8298983;28;19924;-45
2021/08/04 03:22:23;;;;;;;;;;;21.80;49.60;;;;;;8299743;28;20020;-45
2021/08/04 03:26:23;;;;;;;;;;;21.80;49.70;;;;;;8299510;28;19925;-46
2021/08/04 03:30:23;;;;;;;;;;;21.80;49.60;;;;;;8298481;28;20390;-46
2021/08/04 03:34:24;;;;;;;;;;;21.80;49.70;;;;;;8299113;28;20355;-46
2021/08/04 03:38:24;;;;;;;;;;;21.80;49.70;;;;;;8299018;28;19940;-45
2021/08/04 03:42:25;;;;;;;;;;;21.80;49.70;;;;;;8299010;28;20441;-45
2021/08/04 03:46:25;;;;;;;;;;;21.80;49.70;;;;;;8298518;28;19922;-45
2021/08/04 03:50:26;;;;;;;;;;;21.80;49.70;;;;;;8298391;28;20008;-46
2021/08/04 03:54:26;;;;;;;;;;;21.70;49.60;;;;;;8297851;28;19917;-45
2021/08/04 03:58:28;;;;;;;;;;;21.70;49.60;;;;;;8299030;28;19913;-46
2021/08/04 04:02:28;;;;;;;;;;;21.80;49.70;;;;;;8298223;28;20335;-47
2021/08/04 04:06:29;;;;;;;;;;;21.70;49.60;;;;;;8297516;28;19929;-45
2021/08/04 04:10:31;;;;;;;;;;;21.80;49.70;;;;;;8297060;28;22300;-46
2021/08/04 04:14:32;;;;;;;;;;;21.80;49.70;;;;;;8297916;28;20286;-45
2021/08/04 04:18:32;;;;;;;;;;;21.70;49.70;;;;;;8298071;28;19917;-46
2021/08/04 04:22:33;;;;;;;;;;;21.70;49.70;;;;;;8297771;28;19918;-46
2021/08/04 04:26:33;;;;;;;;;;;21.70;49.70;;;;;;8297662;28;19917;-45
2021/08/04 04:30:34;;;;;;;;;;;21.70;49.70;;;;;;8297028;28;19973;-46
2021/08/04 04:34:34;;;;;;;;;;;21.70;49.70;;;;;;8298419;28;19914;-49
2021/08/04 04:38:35;;;;;;;;;;;21.70;49.70;;;;;;8297556;28;20017;-45
2021/08/04 04:42:35;;;;;;;;;;;21.70;49.70;;;;;;8299223;28;19980;-45
2021/08/04 04:46:36;;;;;;;;;;;21.70;49.70;;;;;;8303945;28;19917;-45
2021/08/04 04:50:36;;;;;;;;;;;21.70;49.70;;;;;;8304613;28;19922;-46
2021/08/04 04:54:37;;;;;;;;;;;21.70;49.70;;;;;;8303255;28;19942;-45
2021/08/04 04:58:37;;;;;;;;;;;21.70;49.70;;;;;;8303675;28;20000;-45
2021/08/04 05:02:38;;;;;;;;;;;21.70;49.70;;;;;;8303632;28;19917;-46
2021/08/04 05:06:39;;;;;;;;;;;21.70;49.70;;;;;;8302873;28;20327;-45
2021/08/04 05:10:39;;;;;;;;;;;21.70;49.70;;;;;;8303949;28;20164;-46
2021/08/04 05:14:40;;;;;;;;;;;21.70;49.70;;;;;;8303051;28;19993;-46
2021/08/04 05:18:41;;;;;;;;;;;21.70;49.70;;;;;;8303092;28;19918;-46
2021/08/04 05:22:42;;;;;;;;;;;21.70;49.60;;;;;;8302983;28;20290;-46
2021/08/04 05:26:43;;;;;;;;;;;21.70;49.70;;;;;;8303245;28;20001;-45
2021/08/04 05:30:43;;;;;;;;;;;21.70;49.70;;;;;;8302839;28;19933;-46
2021/08/04 05:34:43;;;;;;;;;;;21.70;49.70;;;;;;8302744;28;19918;-45
2021/08/04 05:38:44;;;;;;;;;;;21.70;49.70;;;;;;8301770;28;19917;-45
2021/08/04 05:42:44;;;;;;;;;;;21.70;49.70;;;;;;8302700;28;20012;-48
2021/08/04 05:46:45;;;;;;;;;;;21.60;49.70;;;;;;8302617;28;19918;-46
2021/08/04 05:50:45;;;;;;;;;;;21.60;49.70;;;;;;8301523;28;20382;-46
2021/08/04 05:54:46;;;;;;;;;;;21.70;49.70;;;;;;8300708;28;19917;-46
2021/08/04 05:58:46;;;;;;;;;;;21.70;49.70;;;;;;8301977;28;19933;-47
2021/08/04 06:02:47;;;;;;;;;;;21.60;49.70;;;;;;8300891;28;19921;-47
2021/08/04 06:06:48;;;;;;;;;;;21.70;49.80;;;;;;8299846;28;19922;-47
2021/08/04 06:10:48;;;;;;;;;;;21.70;49.70;;;;;;8299692;28;19922;-46
2021/08/04 06:14:49;;;;;;;;;;;21.70;49.70;;;;;;8299240;28;19929;-46
2021/08/04 06:18:49;;;;;;;;;;;21.60;49.70;;;;;;8300391;28;20044;-46
2021/08/04 06:22:49;;;;;;;;;;;21.70;49.70;;;;;;8299513;28;19918;-46
2021/08/04 06:26:50;;;;;;;;;;;21.70;49.70;;;;;;8298786;28;19914;-45
2021/08/04 06:30:51;;;;;;;;;;;21.70;49.70;;;;;;8299239;28;19925;-47
2021/08/04 06:34:51;;;;;;;;;;;21.70;49.70;;;;;;8298963;28;19959;-45
2021/08/04 06:38:51;;;;;;;;;;;21.70;49.70;;;;;;8299081;28;20284;-46
2021/08/04 06:42:52;;;;;;;;;;;21.70;49.60;;;;;;8298762;28;20468;-46
2021/08/04 06:46:56;;;;;;;;;;;21.70;49.60;;;;;;8298784;28;19913;-45
2021/08/04 06:50:56;;;;;;;;;;;21.70;49.70;;;;;;8298185;28;19978;-45
2021/08/04 06:54:57;;;;;;;;;;;21.70;49.60;;;;;;8299143;28;19913;-47
2021/08/04 06:58:57;;;;;;;;;;;21.70;49.60;;;;;;8298183;28;19918;-48
2021/08/04 07:02:58;;;;;;;;;;;21.70;49.60;;;;;;8297762;28;19968;-45
2021/08/04 07:06:59;;;;;;;;;;;21.80;49.60;;;;;;8297815;28;19922;-46
2021/08/04 07:11:00;;;;;;;;;;;21.80;49.60;;;;;;8298533;28;20374;-47
2021/08/04 07:15:00;;;;;;;;;;;21.80;49.60;;;;;;8297499;28;19929;-46
2021/08/04 07:19:00;;;;;;;;;;;21.70;49.60;;;;;;8297728;28;19931;-46
2021/08/04 07:23:01;;;;;;;;;;;21.80;49.60;;;;;;8297504;28;19921;-47
2021/08/04 07:27:01;;;;;;;;;;;21.80;49.60;;;;;;8297012;28;19997;-46
2021/08/04 07:31:02;;;;;;;;;;;21.80;49.60;;;;;;8297969;28;19922;-48
2021/08/04 07:35:03;;;;;;;;;;;21.80;49.60;;;;;;8297164;28;20371;-46
2021/08/04 07:39:04;;;;;;;;;;;21.80;49.60;;;;;;8296437;28;19921;-46
2021/08/04 07:43:04;;;;;;;;;;;21.80;49.60;;;;;;8297283;28;20258;-48
2021/08/04 07:47:04;;;;;;;;;;;21.80;49.60;;;;;;8297909;28;19944;-46
2021/08/04 07:51:05;;;;;;;;;;;21.80;49.60;;;;;;8296349;28;19929;-47
2021/08/04 07:55:06;;;;;;;;;;;21.80;49.60;;;;;;8296813;28;19921;-47
2021/08/04 07:59:07;;;;;;;;;;;21.80;49.60;;;;;;8298275;28;19928;-47
2021/08/04 08:03:07;;;;;;;;;;;21.80;49.60;;;;;;8298416;28;19920;-46
2021/08/04 08:07:07;;;;;;;;;;;21.80;49.60;;;;;;8298150;28;19945;-47
2021/08/04 08:11:08;;;;;;;;;;;21.80;49.50;;;;;;8297898;28;19929;-47
2021/08/04 08:15:08;;;;;;;;;;;21.80;49.60;;;;;;8297337;28;20342;-47
2021/08/04 08:19:09;;;;;;;;;;;21.80;49.60;;;;;;8297101;28;19918;-46
2021/08/04 08:23:10;;;;;;;;;;;21.80;49.60;;;;;;8298486;28;19917;-47
2021/08/04 08:27:10;;;;;;;;;;;21.80;49.50;;;;;;8297143;28;19946;-47
2021/08/04 08:31:11;;;;;;;;;;;21.80;49.50;;;;;;8297616;28;20342;-47
2021/08/04 08:35:11;;;;;;;;;;;21.80;49.50;;;;;;8297631;28;20397;-47
2021/08/04 08:39:12;;;;;;;;;;;21.80;49.50;;;;;;8297883;28;20378;-47
2021/08/04 08:43:15;;;;;;;;;;;21.80;49.50;;;;;;8297258;28;19917;-48
2021/08/04 08:47:15;;;;;;;;;;;21.90;49.50;;;;;;8297352;28;20349;-47
2021/08/04 08:51:17;;;;;;;;;;;21.80;49.50;;;;;;8296766;28;19925;-46
2021/08/04 08:55:17;;;;;;;;;;;21.80;49.50;;;;;;8297251;28;19913;-46
2021/08/04 08:59:18;;;;;;;;;;;21.80;49.50;;;;;;8297933;28;19957;-47
2021/08/04 09:03:19;;;;;;;;;;;21.80;49.50;;;;;;8296740;28;19957;-46
2021/08/04 09:07:29;;;;;;;;;;;21.90;49.50;;;;;;8297084;28;19925;-46
2021/08/04 09:11:30;;;;;;;;;;;21.90;49.50;;;;;;8296854;28;19922;-47
2021/08/04 09:15:32;;;;;;;;;;;21.90;49.50;;;;;;8297102;28;20012;-46
2021/08/04 09:19:33;;;;;;;;;;;21.90;49.50;;;;;;8296778;28;19922;-48
2021/08/04 09:23:39;;;;;;;;;;;21.90;49.50;;;;;;8296881;28;20012;-48
2021/08/04 09:27:47;;;;;;;;;;;21.90;49.50;;;;;;8296823;28;20016;-47
2021/08/04 09:31:49;;;;;;;;;;;21.90;49.50;;;;;;8302698;28;20383;-47
2021/08/04 09:35:50;;;;;;;;;;;21.90;49.50;;;;;;8302970;28;20275;-46
2021/08/04 09:39:54;;;;;;;;;;;21.90;49.50;;;;;;8302467;28;20382;-47
2021/08/04 09:44:05;;;;;;;;;;;21.90;49.50;;;;;;8302419;28;19913;-47
2021/08/04 09:48:09;;;;;;;;;;;21.90;49.50;;;;;;8301868;28;19925;-46
2021/08/04 09:52:12;;;;;;;;;;;21.90;49.40;;;;;;8302974;28;19929;-47
2021/08/04 09:56:16;;;;;;;;;;;21.90;49.40;;;;;;8302321;28;19921;-46
2021/08/04 10:00:17;;;;;;;;;;;21.90;49.40;;;;;;8301503;28;20327;-46
2021/08/04 10:04:18;;;;;;;;;;;21.90;49.40;;;;;;8301785;28;19914;-46
2021/08/04 10:08:18;;;;;;;;;;;21.90;49.40;;;;;;8301597;28;19929;-47
2021/08/04 10:12:19;;;;;;;;;;;21.90;49.40;;;;;;8301881;28;19944;-46
2021/08/04 10:16:20;;;;;;;;;;;21.90;49.40;;;;;;8301427;28;20004;-46
2021/08/04 10:20:21;;;;;;;;;;;21.90;49.40;;;;;;8301392;28;19970;-47
2021/08/04 10:24:22;;;;;;;;;;;22.00;49.50;;;;;;8300767;28;19918;-46
2021/08/04 10:28:23;;;;;;;;;;;21.90;49.40;;;;;;8301783;28;19921;-46
2021/08/04 10:32:25;;;;;;;;;;;21.90;49.40;;;;;;8300943;28;20370;-45
2021/08/04 10:36:33;;;;;;;;;;;21.90;49.40;;;;;;8300364;28;20001;-47
2021/08/04 10:40:33;;;;;;;;;;;21.90;49.40;;;;;;8300180;28;19984;-47
2021/08/04 10:44:34;;;;;;;;;;;21.90;49.40;;;;;;8300564;28;19914;-47
2021/08/04 10:48:40;;;;;;;;;;;21.90;49.40;;;;;;8300540;28;19922;-46
2021/08/04 10:52:58;;;;;;;;;;;21.90;49.40;;;;;;8300405;28;19917;-46
2021/08/04 10:57:01;;;;;;;;;;;22.00;49.50;;;;;;8299793;28;19917;-46
2021/08/04 11:01:21;;;;;;;;;;;22.00;49.40;;;;;;8300069;28;19922;-45
2021/08/04 11:05:21;;;;;;;;;;;21.90;49.40;;;;;;8299882;28;19921;-46
2021/08/04 11:09:21;;;;;;;;;;;22.00;49.50;;;;;;8299969;28;20334;-47
2021/08/04 11:13:41;;;;;;;;;;;22.00;49.50;;;;;;8299705;28;19975;-46
2021/08/04 11:17:58;;;;;;;;;;;22.00;49.50;;;;;;8298987;28;19946;-45
2021/08/04 11:22:17;;;;;;;;;;;22.00;49.40;;;;;;8299634;28;19914;-45
2021/08/04 11:26:29;;;;;;;;;;;22.00;49.50;;;;;;8299342;28;19918;-45
2021/08/04 11:30:32;;;;;;;;;;;22.00;49.40;;;;;;8299363;28;19926;-46
2021/08/04 11:34:33;;;;;;;;;;;22.00;49.40;;;;;;8298994;28;19926;-46
2021/08/04 11:38:44;;;;;;;;;;;22.00;49.40;;;;;;8299007;28;20367;-46
2021/08/04 11:42:54;;;;;;;;;;;22.00;49.40;;;;;;8298763;28;19917;-47
2021/08/04 11:46:56;;;;;;;;;;;22.00;49.40;;;;;;8298776;28;19983;-47
2021/08/04 11:50:57;;;;;;;;;;;22.00;49.40;;;;;;8298282;28;19976;-46
2021/08/04 11:55:08;;;;;;;;;;;22.00;49.40;;;;;;8298057;28;19960;-46
2021/08/04 11:59:09;;;;;;;;;;;22.00;49.50;;;;;;8302568;28;19914;-47
2021/08/04 12:03:18;;;;;;;;;;;22.00;49.50;;;;;;8297775;28;19917;-46
2021/08/04 12:07:26;;;;;;;;;;;22.00;49.50;;;;;;8298913;28;19976;-47
2021/08/04 12:11:42;;;;;;;;;;;22.00;49.50;;;;;;8301389;28;19953;-47
2021/08/04 12:15:42;;;;;;;;;;;22.00;49.50;;;;;;8298035;28;19952;-47
2021/08/04 12:19:43;;;;;;;;;;;22.00;49.50;;;;;;8298023;28;19918;-48
2021/08/04 12:23:44;;;;;;;;;;;22.00;49.50;;;;;;8297376;28;19918;-47
2021/08/04 12:27:46;;;;;;;;;;;22.00;49.60;;;;;;8298584;28;19948;-47
2021/08/04 12:32:12;;;;;;;;;;;22.00;49.60;;;;;;8297621;28;20272;-46
2021/08/04 12:40:16;;;;;;;;;;;22.00;49.60;;;;;;8298031;28;19914;-45
2021/08/04 12:44:17;;;;;;;;;;;22.00;49.60;;;;;;8297587;28;19917;-46
2021/08/04 12:48:19;;;;;;;;;;;22.00;49.60;;;;;;8297692;28;19918;-47
2021/08/04 12:52:20;;;;;;;;;;;22.00;49.60;;;;;;8297381;28;19924;-49
2021/08/04 12:56:27;;;;;;;;;;;22.00;49.60;;;;;;8297383;28;19913;-46
2021/08/04 13:00:29;;;;;;;;;;;22.00;49.60;;;;;;8296789;28;19921;-50
2021/08/04 13:04:29;;;;;;;;;;;22.00;49.60;;;;;;8301557;28;19935;-47
2021/08/04 13:08:34;;;;;;;;;;;22.00;49.70;;;;;;8303304;28;20290;-49
2021/08/04 13:12:34;;;;;;;;;;;22.00;49.70;;;;;;8302753;28;20345;-48
2021/08/04 13:16:35;;;;;;;;;;;22.00;49.70;;;;;;8303111;28;19959;-46
2021/08/04 13:20:40;;;;;;;;;;;22.00;49.70;;;;;;8302752;28;19917;-48
2021/08/04 13:24:40;;;;;;;;;;;22.00;49.70;;;;;;8303117;28;19917;-46
2021/08/04 13:28:41;;;;;;;;;;;22.00;49.70;;;;;;8303159;28;20382;-46
2021/08/04 13:32:42;;;;;;;;;;;22.00;49.70;;;;;;8302169;28;20358;-45
2021/08/04 13:36:42;;;;;;;;;;;22.00;49.70;;;;;;8302482;28;20007;-47
2021/08/04 13:40:43;;;;;;;;;;;22.00;49.70;;;;;;8303059;28;19922;-46
2021/08/04 13:44:43;;;;;;;;;;;22.00;49.70;;;;;;8301906;28;19918;-45
2021/08/04 13:48:44;;;;;;;;;;;22.00;49.70;;;;;;8301931;28;19926;-46
2021/08/04 13:52:45;;;;;;;;;;;22.00;49.70;;;;;;8301805;28;19921;-46
2021/08/04 13:56:45;;;;;;;;;;;22.00;49.70;;;;;;8302089;28;19945;-47
2021/08/04 14:00:46;;;;;;;;;;;22.00;49.70;;;;;;8301653;28;19948;-46
2021/08/04 14:04:46;;;;;;;;;;;22.10;49.80;;;;;;8301717;28;20463;-46
2021/08/04 14:08:47;;;;;;;;;;;22.00;49.70;;;;;;8300883;28;19969;-46
2021/08/04 14:12:47;;;;;;;;;;;22.00;49.70;;;;;;8301758;28;20294;-48
2021/08/04 14:16:49;;;;;;;;;;;22.10;49.80;;;;;;8301073;28;20425;-46
2021/08/04 14:20:49;;;;;;;;;;;22.10;49.80;;;;;;8300775;28;19917;-47
2021/08/04 14:24:50;;;;;;;;;;;22.10;49.80;;;;;;8301173;28;19925;-48
2021/08/04 14:28:50;;;;;;;;;;;22.10;49.80;;;;;;8300961;28;20413;-46
2021/08/04 14:32:51;;;;;;;;;;;22.10;49.80;;;;;;8301125;28;19914;-48
2021/08/04 14:36:52;;;;;;;;;;;22.10;49.80;;;;;;8300861;28;20337;-45
2021/08/04 14:40:52;;;;;;;;;;;22.10;49.80;;;;;;8300336;28;19948;-45
2021/08/04 14:44:53;;;;;;;;;;;22.00;49.70;;;;;;8299906;28;19980;-47
2021/08/04 14:48:53;;;;;;;;;;;22.10;49.80;;;;;;8300392;28;19921;-45
2021/08/04 14:52:54;;;;;;;;;;;22.10;49.80;;;;;;8307286;28;20350;-45
2021/08/04 14:56:55;;;;;;;;;;;22.10;50.20;;;;;;8307508;28;19924;-45
2021/08/04 15:00:55;;;;;;;;;;;22.10;50.00;;;;;;8309357;28;20055;-45
2021/08/04 15:04:55;;;;;;;;;;;22.10;50.20;;;;;;8322511;28;19921;-47
2021/08/04 15:08:56;;;;;;;;;;;22.20;50.20;;;;;;8326127;28;20383;-47
2021/08/04 15:12:56;;;;;;;;;;;22.20;50.20;;;;;;8299363;28;19976;-46
2021/08/04 15:16:59;;;;;;;;;;;22.20;50.10;;;;;;8293565;28;19928;-46
2021/08/04 15:20:59;;;;;;;;;;;22.30;50.20;;;;;;8301775;28;20390;-45
2021/08/04 15:25:00;;;;;;;;;;;22.30;50.20;;;;;;8326839;28;19964;-46
2021/08/04 15:29:00;;;;;;;;;;;22.30;50.20;;;;;;8298065;28;20337;-45
2021/08/04 15:33:01;;;;;;;;;;;22.40;50.30;;;;;;8279775;28;20397;-46
2021/08/04 15:37:01;;;;;;;;;;;22.40;50.20;;;;;;8303964;28;19928;-46
2021/08/04 15:41:02;;;;;;;;;;;22.40;50.20;;;;;;8324958;28;19963;-47
2021/08/04 15:45:03;;;;;;;;;;;22.40;50.10;;;;;;8325088;28;19968;-46
2021/08/04 15:49:03;;;;;;;;;;;22.40;50.20;;;;;;8300019;28;19933;-45
2021/08/04 15:53:04;;;;;;;;;;;22.50;50.30;;;;;;8302474;28;19921;-45
2021/08/04 15:57:04;;;;;;;;;;;22.50;50.30;;;;;;8318872;28;19959;-45
2021/08/04 16:01:05;;;;;;;;;;;22.50;50.30;;;;;;8293150;28;19921;-46
2021/08/04 16:05:06;;;;;;;;;;;22.50;50.40;;;;;;8291985;28;19921;-45
2021/08/04 16:09:06;;;;;;;;;;;22.50;50.40;;;;;;8291515;28;20371;-45
2021/08/04 16:13:07;;;;;;;;;;;22.50;50.40;;;;;;8301940;28;19921;-46
2021/08/04 16:17:08;;;;;;;;;;;22.50;50.40;;;;;;8306897;28;19921;-46
2021/08/04 16:21:08;;;;;;;;;;;22.60;50.40;;;;;;8292263;28;20342;-47
2021/08/04 16:25:09;;;;;;;;;;;22.60;50.40;;;;;;8292078;28;19922;-49
2021/08/04 16:29:10;;;;;;;;;;;22.60;50.50;;;;;;8292996;28;19929;-47
2021/08/04 16:33:10;;;;;;;;;;;22.60;50.40;;;;;;8291467;28;19921;-47
2021/08/04 16:37:11;;;;;;;;;;;22.60;50.50;;;;;;8293847;28;19943;-45
2021/08/04 16:41:11;;;;;;;;;;;22.60;50.40;;;;;;8302509;28;19921;-46
2021/08/04 16:45:12;;;;;;;;;;;22.70;50.50;;;;;;8302076;28;19974;-47
2021/08/04 16:49:12;;;;;;;;;;;22.70;50.50;;;;;;8302212;28;19941;-46
2021/08/04 16:53:13;;;;;;;;;;;22.70;50.50;;;;;;8302999;28;19925;-44
2021/08/04 16:57:13;;;;;;;;;;;22.70;50.50;;;;;;8301873;28;20306;-46
2021/08/04 17:01:14;;;;;;;;;;;22.70;50.50;;;;;;8302679;28;20297;-45
2021/08/04 17:05:15;;;;;;;;;;;22.80;50.50;;;;;;8302241;28;19929;-45
2021/08/04 17:09:16;;;;;;;;;;;22.80;50.60;;;;;;8301869;28;19930;-46
2021/08/04 17:13:16;;;;;;;;;;;22.80;50.50;;;;;;8335140;28;19925;-46
2021/08/04 17:17:17;;;;;;;;;;;22.80;50.60;;;;;;8334812;28;20366;-45
2021/08/04 17:21:18;;;;;;;;;;;22.80;50.70;;;;;;8334294;28;20465;-49
2021/08/04 17:25:18;;;;;;;;;;;22.80;50.60;;;;;;8334941;28;19924;-45
2021/08/04 17:29:19;;;;;;;;;;;22.80;50.60;;;;;;8335343;28;19929;-47
2021/08/04 17:33:19;;;;;;;;;;;22.80;50.70;;;;;;8334139;28;20313;-45
2021/08/04 17:37:20;;;;;;;;;;;22.90;50.80;;;;;;8335021;28;19928;-46
2021/08/04 17:41:20;;;;;;;;;;;22.90;50.80;;;;;;8334492;28;19917;-46
2021/08/04 17:45:21;;;;;;;;;;;22.90;50.90;;;;;;8334730;28;19920;-47
2021/08/04 17:49:21;;;;;;;;;;;22.90;50.70;;;;;;8332925;28;19951;-45
2021/08/04 17:53:22;;;;;;;;;;;23.00;50.80;;;;;;8329370;28;19944;-46
2021/08/04 17:57:22;;;;;;;;;;;23.00;50.80;;;;;;8316876;28;19925;-46
2021/08/04 18:01:23;;;;;;;;;;;23.10;50.80;;;;;;8296628;28;19975;-46
2021/08/04 18:05:23;;;;;;;;;;;23.10;50.80;;;;;;8308206;28;19925;-45
2021/08/04 18:09:24;;;;;;;;;;;23.10;50.80;;;;;;8303699;28;19929;-45
2021/08/04 18:13:24;;;;;;;;;;;23.10;50.80;;;;;;8296558;28;19918;-45
2021/08/04 18:17:25;;;;;;;;;;;23.10;50.80;;;;;;8314047;28;19925;-45
2021/08/04 18:21:28;;;;;;;;;;;23.10;50.90;;;;;;8315246;28;19920;-46
2021/08/04 18:25:28;;;;;;;;;;;23.10;50.90;;;;;;8305949;28;19921;-45
2021/08/04 18:29:29;;;;;;;;;;;23.00;50.80;;;;;;8301117;28;20051;-45
2021/08/04 18:33:30;;;;;;;;;;;23.00;50.80;;;;;;8300571;28;19956;-45
2021/08/04 18:37:30;;;;;;;;;;;23.00;50.70;;;;;;8301625;28;19968;-45
2021/08/04 18:41:31;;;;;;;;;;;22.90;50.60;;;;;;8300649;28;19964;-45
2021/08/04 18:45:31;;;;;;;;;;;22.90;50.60;;;;;;8300363;28;19918;-46
2021/08/04 18:49:31;;;;;;;;;;;22.90;50.60;;;;;;8313809;28;19925;-46
2021/08/04 18:53:32;;;;;;;;;;;22.90;50.60;;;;;;8333873;28;20008;-45
2021/08/04 18:57:32;;;;;;;;;;;22.90;50.70;;;;;;8333045;28;19921;-46
2021/08/04 19:01:33;;;;;;;;;;;22.80;50.60;;;;;;8332620;28;19925;-45
2021/08/04 19:05:34;;;;;;;;;;;22.80;50.60;;;;;;8332564;28;20370;-46
2021/08/04 19:09:34;;;;;;;;;;;22.80;50.70;;;;;;8332123;28;19925;-45
2021/08/04 19:13:37;;;;;;;;;;;22.80;50.70;;;;;;8333196;28;19996;-45
2021/08/04 19:17:37;;;;;;;;;;;22.80;50.70;;;;;;8332328;28;19917;-47
2021/08/04 19:21:38;;;;;;;;;;;22.80;50.70;;;;;;8331820;28;19963;-46
2021/08/04 19:25:38;;;;;;;;;;;22.80;50.70;;;;;;8332221;28;19917;-46
2021/08/04 19:29:39;;;;;;;;;;;22.70;50.70;;;;;;8332904;28;19928;-46
2021/08/04 19:33:39;;;;;;;;;;;22.70;50.70;;;;;;8331557;28;19944;-47
2021/08/04 19:37:40;;;;;;;;;;;22.70;50.70;;;;;;8331871;28;19924;-47
2021/08/04 19:41:40;;;;;;;;;;;22.70;50.70;;;;;;8331991;28;19959;-46
2021/08/04 19:45:41;;;;;;;;;;;22.70;50.80;;;;;;8331482;28;19967;-47
2021/08/04 19:49:41;;;;;;;;;;;22.70;50.80;;;;;;8332219;28;19921;-46
2021/08/04 19:53:42;;;;;;;;;;;22.70;50.80;;;;;;8330900;28;19924;-48
2021/08/04 19:57:42;;;;;;;;;;;22.60;50.70;;;;;;8330975;28;19921;-45
2021/08/04 20:01:45;;;;;;;;;;;22.60;50.70;;;;;;8331235;28;19983;-46
2021/08/04 20:05:46;;;;;;;;;;;22.60;50.70;;;;;;8331226;28;20007;-47
2021/08/04 20:09:46;;;;;;;;;;;22.60;50.70;;;;;;8330723;28;19925;-45
2021/08/04 20:13:46;;;;;;;;;;;22.60;50.70;;;;;;8330211;28;20007;-46
2021/08/04 20:17:47;;;;;;;;;;;22.60;50.70;;;;;;8330179;28;19913;-45
2021/08/04 20:21:48;;;;;;;;;;;22.60;50.70;;;;;;8330660;28;19936;-46
2021/08/04 20:25:48;;;;;;;;;;;22.60;50.70;;;;;;8331309;28;20384;-46
2021/08/04 20:29:49;;;;;;;;;;;22.50;50.70;;;;;;8330009;28;20367;-44
2021/08/04 20:33:49;;;;;;;;;;;22.50;50.70;;;;;;8330820;28;20000;-47
2021/08/04 20:37:50;;;;;;;;;;;22.50;50.70;;;;;;8330434;28;19913;-47
2021/08/04 20:41:50;;;;;;;;;;;22.50;50.70;;;;;;8330413;28;19917;-48
2021/08/04 20:45:51;;;;;;;;;;;22.50;50.70;;;;;;8330115;28;19917;-46
2021/08/04 20:49:51;;;;;;;;;;;22.50;50.70;;;;;;8329967;28;19925;-46
2021/08/04 20:53:53;;;;;;;;;;;22.50;50.70;;;;;;8329818;28;19913;-48
2021/08/04 20:57:58;;;;;;;;;;;22.50;50.70;;;;;;8331047;28;19944;-46
2021/08/04 21:02:01;;;;;;;;;;;22.50;50.70;;;;;;8331906;28;19956;-45
2021/08/04 21:06:02;;;;;;;;;;;22.40;50.60;;;;;;8329358;28;19921;-47
2021/08/04 21:10:03;;;;;;;;;;;22.40;50.60;;;;;;8330195;28;19963;-46
2021/08/04 21:14:03;;;;;;;;;;;22.50;50.70;;;;;;8324991;28;19921;-46
2021/08/04 21:18:04;;;;;;;;;;;22.40;50.60;;;;;;8297467;28;19918;-45
2021/08/04 21:22:04;;;;;;;;;;;22.40;50.60;;;;;;8297106;28;19921;-46
2021/08/04 21:26:05;;;;;;;;;;;22.40;50.60;;;;;;8301514;28;19921;-46
2021/08/04 21:30:06;;;;;;;;;;;22.40;50.60;;;;;;8302558;28;19926;-45
2021/08/04 21:34:06;;;;;;;;;;;22.40;50.60;;;;;;8303647;28;20366;-46
2021/08/04 21:38:07;;;;;;;;;;;22.40;51.10;;;;;;8302722;28;19923;-45
2021/08/04 21:42:08;;;;;;;;;;;22.40;50.60;;;;;;8302032;28;20379;-45
2021/08/04 21:46:08;;;;;;;;;;;22.40;50.60;;;;;;8302771;28;19960;-47
2021/08/04 21:50:09;;;;;;;;;;;22.30;50.60;;;;;;8302553;28;19947;-46
2021/08/04 21:54:09;;;;;;;;;;;22.40;50.60;;;;;;8302286;28;19924;-46
2021/08/04 21:58:10;;;;;;;;;;;22.30;50.60;;;;;;8302210;28;19960;-48
2021/08/04 22:02:10;;;;;;;;;;;22.30;50.60;;;;;;8302714;28;20295;-48
2021/08/04 22:06:10;;;;;;;;;;;22.30;50.60;;;;;;8301339;28;19921;-46
2021/08/04 22:10:13;;;;;;;;;;;22.30;50.60;;;;;;8302483;28;20338;-46
2021/08/04 22:14:13;;;;;;;;;;;22.30;50.60;;;;;;8301790;28;19922;-46
2021/08/04 22:18:14;;;;;;;;;;;22.30;50.60;;;;;;8301187;28;20382;-47
2021/08/04 22:22:14;;;;;;;;;;;22.30;50.60;;;;;;8301546;28;20375;-46
2021/08/04 22:26:15;;;;;;;;;;;22.30;50.60;;;;;;8302003;28;19918;-46
2021/08/04 22:30:15;;;;;;;;;;;22.30;50.60;;;;;;8300631;28;19925;-46
2021/08/04 22:34:16;;;;;;;;;;;22.30;50.60;;;;;;8301021;28;19917;-46
2021/08/04 22:38:16;;;;;;;;;;;22.20;50.60;;;;;;8300157;28;19913;-46
2021/08/04 22:42:17;;;;;;;;;;;22.30;50.70;;;;;;8300294;28;19941;-47
2021/08/04 22:46:17;;;;;;;;;;;22.20;50.60;;;;;;8301348;28;20009;-46
2021/08/04 22:50:18;;;;;;;;;;;22.20;50.60;;;;;;8304098;28;20310;-46
2021/08/04 22:54:19;;;;;;;;;;;22.20;50.60;;;;;;8321494;28;20000;-46
2021/08/04 22:58:19;;;;;;;;;;;22.20;50.60;;;;;;8333183;28;19921;-46
2021/08/04 23:02:19;;;;;;;;;;;22.20;50.60;;;;;;8333751;28;20342;-46
2021/08/04 23:06:20;;;;;;;;;;;22.20;50.60;;;;;;8332381;28;19928;-48
2021/08/04 23:10:20;;;;;;;;;;;22.20;50.60;;;;;;8332617;28;19925;-46
2021/08/04 23:14:21;;;;;;;;;;;22.20;50.60;;;;;;8332428;28;20317;-46
2021/08/04 23:18:21;;;;;;;;;;;22.20;50.60;;;;;;8332841;28;19924;-46
2021/08/04 23:22:22;;;;;;;;;;;22.20;50.60;;;;;;8332261;28;20281;-46
2021/08/04 23:26:22;;;;;;;;;;;22.20;50.60;;;;;;8332095;28;19996;-47